createdAt,value
2019-03-08T00:00:27.388Z,11.77
2019-03-08T00:02:01.067Z,11.40
2019-03-08T00:03:34.818Z,10.60
2019-03-08T00:05:09.069Z,12.13
2019-03-08T00:06:42.821Z,10.27
2019-03-08T00:08:16.463Z,11.47
2019-03-08T00:09:50.312Z,12.40
2019-03-08T00:11:24.296Z,11.63
2019-03-08T00:12:58.115Z,11.43
2019-03-08T00:14:31.784Z,11.20
2019-03-08T00:16:05.502Z,14.07
2019-03-08T00:17:39.474Z,13.27
2019-03-08T00:19:13.575Z,12.40
2019-03-08T00:20:47.200Z,13.50
2019-03-08T00:22:20.836Z,12.83
2019-03-08T00:23:54.729Z,14.03
2019-03-08T00:25:28.897Z,12.77
2019-03-08T00:27:02.708Z,14.07
2019-03-08T00:28:36.375Z,15.87
2019-03-08T00:30:15.442Z,15.90
2019-03-08T00:31:49.435Z,18.13
2019-03-08T00:33:23.659Z,20.48
2019-03-08T00:34:57.378Z,22.47
2019-03-08T00:36:31.414Z,20.23
2019-03-08T00:38:05.126Z,23.57
2019-03-08T00:39:38.757Z,20.27
2019-03-08T00:41:12.495Z,24.50
2019-03-08T00:42:46.372Z,22.30
2019-03-08T00:44:20.059Z,23.70
2019-03-08T00:45:53.825Z,21.00
2019-03-08T00:47:27.573Z,20.80
2019-03-08T00:49:01.891Z,18.90
2019-03-08T00:50:35.587Z,19.47
2019-03-08T00:52:09.211Z,22.00
2019-03-08T00:53:42.914Z,20.47
2019-03-08T00:55:17.098Z,19.90
2019-03-08T00:56:51.094Z,18.53
2019-03-08T00:58:24.802Z,17.30
2019-03-08T00:59:58.438Z,14.73
2019-03-08T01:01:33.194Z,13.10
2019-03-08T01:03:06.952Z,16.57
2019-03-08T01:04:40.680Z,17.03
2019-03-08T01:06:14.363Z,16.80
2019-03-08T01:07:48.291Z,17.30
2019-03-08T01:09:22.089Z,16.97
2019-03-08T01:10:55.708Z,15.57
2019-03-08T01:12:30.133Z,14.50
2019-03-08T01:14:04.495Z,12.90
2019-03-08T01:15:38.207Z,13.40
2019-03-08T01:17:12.002Z,11.77
2019-03-08T01:18:45.666Z,12.33
2019-03-08T01:20:20.731Z,11.27
2019-03-08T01:21:54.420Z,11.73
2019-03-08T01:23:28.177Z,11.77
2019-03-08T01:25:01.872Z,12.03
2019-03-08T01:26:35.928Z,10.63
2019-03-08T01:28:11.317Z,11.37
2019-03-08T01:29:45.125Z,11.80
2019-03-08T01:31:18.821Z,11.37
2019-03-08T01:32:53.151Z,10.37
2019-03-08T01:34:26.894Z,10.83
2019-03-08T01:36:00.684Z,10.10
2019-03-08T01:37:34.426Z,11.40
2019-03-08T01:39:09.075Z,11.27
2019-03-08T01:40:42.790Z,11.27
2019-03-08T01:42:16.458Z,13.07
2019-03-08T01:43:50.299Z,11.97
2019-03-08T01:45:24.491Z,13.23
2019-03-08T01:46:58.193Z,12.93
2019-03-08T01:48:31.925Z,12.33
2019-03-08T01:50:07.210Z,11.57
2019-03-08T01:51:41.102Z,13.77
2019-03-08T01:53:14.807Z,11.90
2019-03-08T01:54:48.576Z,11.63
2019-03-08T01:56:22.377Z,10.47
2019-03-08T01:57:56.551Z,11.03
2019-03-08T01:59:30.334Z,10.27
2019-03-08T02:01:04.001Z,10.53
2019-03-08T02:02:39.483Z,10.77
2019-03-08T02:04:13.546Z,11.67
2019-03-08T02:05:47.208Z,12.30
2019-03-08T02:07:20.961Z,13.63
2019-03-08T02:08:55.077Z,15.40
2019-03-08T02:10:28.895Z,14.97
2019-03-08T02:12:02.633Z,14.50
2019-03-08T02:13:36.357Z,15.07
2019-03-08T02:15:12.942Z,18.47
2019-03-08T02:16:48.486Z,17.50
2019-03-08T02:18:22.221Z,16.83
2019-03-08T02:19:55.850Z,17.93
2019-03-08T02:21:29.855Z,17.33
2019-03-08T02:23:03.969Z,17.70
2019-03-08T02:24:37.613Z,16.30
2019-03-08T02:26:12.292Z,16.00
2019-03-08T02:27:46.009Z,16.43
2019-03-08T02:29:19.937Z,15.87
2019-03-08T02:30:54.867Z,14.50
2019-03-08T02:32:28.509Z,13.57
2019-03-08T02:34:02.230Z,14.50
2019-03-08T02:35:36.297Z,17.40
2019-03-08T02:37:09.990Z,15.73
2019-03-08T02:38:43.650Z,13.87
2019-03-08T02:40:34.822Z,15.03
2019-03-08T02:42:08.986Z,13.90
2019-03-08T02:43:42.631Z,18.73
2019-03-08T02:45:17.916Z,14.33
2019-03-08T02:46:52.416Z,13.20
2019-03-08T02:48:26.333Z,13.57
2019-03-08T02:50:00.017Z,11.93
2019-03-08T02:51:33.776Z,11.57
2019-03-08T02:53:07.497Z,10.80
2019-03-08T02:54:41.721Z,13.90
2019-03-08T02:56:15.372Z,13.23
2019-03-08T02:57:49.084Z,14.60
2019-03-08T02:59:22.806Z,15.30
2019-03-08T03:00:56.789Z,15.33
2019-03-08T03:02:31.130Z,16.80
2019-03-08T03:04:04.955Z,17.03
2019-03-08T03:05:39.267Z,14.43
2019-03-08T03:07:13.568Z,12.30
2019-03-08T03:08:47.237Z,15.60
2019-03-08T03:10:20.975Z,12.90
2019-03-08T03:11:54.660Z,13.07
2019-03-08T03:13:28.846Z,12.80
2019-03-08T03:15:02.583Z,13.57
2019-03-08T03:16:36.367Z,13.00
2019-03-08T03:18:10.118Z,14.10
2019-03-08T03:19:45.066Z,13.20
2019-03-08T03:21:19.407Z,12.80
2019-03-08T03:22:53.153Z,12.87
2019-03-08T03:24:26.819Z,10.50
2019-03-08T03:26:02.442Z,12.00
2019-03-08T03:27:37.779Z,11.77
2019-03-08T03:29:11.405Z,11.87
2019-03-08T03:30:45.037Z,11.73
2019-03-08T03:32:19.320Z,11.43
2019-03-08T03:33:53.336Z,12.40
2019-03-08T03:35:27.070Z,12.10
2019-03-08T03:37:04.493Z,12.53
2019-03-08T03:38:39.191Z,13.60
2019-03-08T03:40:15.356Z,12.53
2019-03-08T03:41:49.097Z,12.17
2019-03-08T03:43:22.712Z,13.20
2019-03-08T03:44:56.502Z,16.10
2019-03-08T03:46:30.149Z,13.93
2019-03-08T03:48:03.993Z,17.03
2019-03-08T03:49:37.703Z,22.90
2019-03-08T03:51:11.727Z,23.20
2019-03-08T03:52:45.494Z,21.17
2019-03-08T03:54:20.848Z,21.03
2019-03-08T03:55:54.622Z,17.90
2019-03-08T03:57:29.087Z,18.67
2019-03-08T03:59:02.875Z,16.90
2019-03-08T04:00:38.907Z,13.63
2019-03-08T04:02:13.713Z,16.33
2019-03-08T04:03:47.728Z,18.70
2019-03-08T04:05:21.462Z,15.13
2019-03-08T04:06:55.099Z,13.67
2019-03-08T04:08:28.866Z,15.20
2019-03-08T04:10:04.918Z,13.83
2019-03-08T04:11:39.113Z,13.63
2019-03-08T04:13:12.772Z,20.77
2019-03-08T04:14:46.479Z,35.07
2019-03-08T04:16:20.505Z,29.37
2019-03-08T04:17:54.138Z,16.97
2019-03-08T04:19:28.202Z,22.77
2019-03-08T04:21:01.903Z,20.77
2019-03-08T04:22:36.080Z,16.73
2019-03-08T04:24:09.782Z,16.23
2019-03-08T04:25:43.496Z,14.63
2019-03-08T04:27:17.141Z,16.10
2019-03-08T04:28:51.059Z,13.67
2019-03-08T04:30:24.737Z,19.13
2019-03-08T04:31:58.443Z,19.10
2019-03-08T04:33:32.052Z,17.93
2019-03-08T04:35:06.369Z,13.60
2019-03-08T04:36:41.695Z,12.27
2019-03-08T04:38:15.521Z,16.47
2019-03-08T04:39:49.234Z,15.87
2019-03-08T04:41:23.201Z,14.97
2019-03-08T04:42:56.953Z,14.50
2019-03-08T04:44:30.791Z,11.87
2019-03-08T04:46:04.433Z,12.57
2019-03-08T04:47:38.387Z,13.10
2019-03-08T04:49:12.042Z,14.07
2019-03-08T04:50:45.776Z,15.53
2019-03-08T04:52:19.638Z,14.50
2019-03-08T04:53:53.569Z,14.53
2019-03-08T04:55:27.283Z,14.70
2019-03-08T04:57:01.011Z,13.20
2019-03-08T04:58:34.725Z,14.97
2019-03-08T05:00:14.004Z,13.63
2019-03-08T05:01:47.700Z,14.97
2019-03-08T05:03:21.354Z,14.37
2019-03-08T05:04:55.407Z,14.27
2019-03-08T05:06:29.530Z,14.10
2019-03-08T05:08:03.195Z,14.40
2019-03-08T05:09:36.939Z,14.73
2019-03-08T05:11:10.627Z,14.37
2019-03-08T05:12:44.614Z,18.73
2019-03-08T05:14:18.249Z,20.00
2019-03-08T05:15:51.969Z,18.63
2019-03-08T05:17:25.696Z,19.67
2019-03-08T05:18:59.802Z,18.47
2019-03-08T05:20:33.555Z,17.70
2019-03-08T05:22:07.190Z,16.40
2019-03-08T05:23:40.892Z,17.30
2019-03-08T05:25:15.414Z,26.27
2019-03-08T05:26:49.092Z,32.07
2019-03-08T05:28:24.078Z,29.27
2019-03-08T05:29:58.299Z,23.45
2019-03-08T05:31:32.614Z,22.50
2019-03-08T05:33:06.873Z,13.70
2019-03-08T05:34:41.677Z,15.03
2019-03-08T05:36:16.378Z,16.57
2019-03-08T05:37:50.867Z,15.98
2019-03-08T05:39:24.627Z,15.50
2019-03-08T05:40:58.904Z,15.20
2019-03-08T05:42:33.191Z,13.43
2019-03-08T05:44:07.738Z,14.40
2019-03-08T05:45:41.995Z,16.55
2019-03-08T05:47:16.294Z,17.62
2019-03-08T05:48:50.590Z,26.52
2019-03-08T05:50:25.095Z,28.35
2019-03-08T05:51:59.327Z,24.87
2019-03-08T05:53:33.610Z,25.48
2019-03-08T05:55:10.652Z,25.27
2019-03-08T05:56:52.165Z,23.40
2019-03-08T05:58:22.281Z,24.55
2019-03-08T05:59:56.524Z,24.70
2019-03-08T06:01:30.820Z,23.38
2019-03-08T06:03:05.614Z,23.45
2019-03-08T06:04:39.930Z,23.32
2019-03-08T06:06:14.248Z,22.95
2019-03-08T06:07:48.684Z,23.65
2019-03-08T06:09:23.494Z,23.95
2019-03-08T06:10:57.794Z,23.20
2019-03-08T06:12:32.146Z,24.25
2019-03-08T06:14:06.472Z,22.67
2019-03-08T06:15:41.154Z,28.23
2019-03-08T06:17:15.428Z,34.23
2019-03-08T06:18:49.666Z,37.63
2019-03-08T06:20:23.923Z,39.00
2019-03-08T06:21:58.500Z,46.40
2019-03-08T06:23:33.368Z,45.03
2019-03-08T06:25:07.734Z,36.50
2019-03-08T06:26:41.989Z,39.23
2019-03-08T06:28:16.458Z,42.60
2019-03-08T06:29:50.689Z,42.70
2019-03-08T06:31:24.993Z,38.48
2019-03-08T06:33:00.009Z,33.63
2019-03-08T06:34:34.440Z,33.63
2019-03-08T06:36:09.908Z,35.52
2019-03-08T06:37:44.240Z,34.80
2019-03-08T06:39:18.918Z,32.85
2019-03-08T06:40:53.253Z,29.90
2019-03-08T06:42:27.482Z,33.13
2019-03-08T06:44:01.793Z,30.32
2019-03-08T06:45:36.078Z,30.60
2019-03-08T06:47:12.117Z,28.62
2019-03-08T06:48:46.339Z,28.73
2019-03-08T06:50:20.665Z,27.42
2019-03-08T06:51:54.988Z,28.30
2019-03-08T06:53:29.638Z,24.70
2019-03-08T06:55:05.268Z,24.35
2019-03-08T06:56:39.536Z,20.95
2019-03-08T06:58:15.417Z,23.35
2019-03-08T06:59:51.583Z,23.18
2019-03-08T07:01:25.993Z,24.35
2019-03-08T07:03:00.334Z,28.80
2019-03-08T07:04:34.574Z,34.70
2019-03-08T07:06:09.016Z,34.80
2019-03-08T07:07:43.362Z,35.03
2019-03-08T07:09:17.607Z,36.17
2019-03-08T07:10:52.247Z,33.63
2019-03-08T07:12:26.780Z,30.27
2019-03-08T07:14:01.062Z,30.77
2019-03-08T07:15:35.296Z,29.52
2019-03-08T07:17:09.525Z,29.15
2019-03-08T07:18:44.151Z,27.67
2019-03-08T07:20:23.225Z,27.70
2019-03-08T07:22:05.098Z,29.23
2019-03-08T07:23:40.980Z,28.00
2019-03-08T07:25:26.372Z,27.00
2019-03-08T07:27:08.688Z,24.80
2019-03-08T07:28:57.442Z,24.45
2019-03-08T07:30:36.362Z,23.70
2019-03-08T07:32:14.929Z,22.15
2019-03-08T07:33:54.354Z,24.02
2019-03-08T07:35:32.982Z,23.65
2019-03-08T07:37:11.991Z,25.30
2019-03-08T07:39:04.433Z,27.65
2019-03-08T07:40:49.373Z,25.82
2019-03-08T07:42:28.528Z,28.90
2019-03-08T07:44:10.120Z,26.95
2019-03-08T07:45:49.028Z,25.37
2019-03-08T07:47:37.060Z,23.95
2019-03-08T07:49:12.938Z,22.77
2019-03-08T07:50:57.654Z,20.17
2019-03-08T07:52:49.799Z,21.37
2019-03-08T07:54:25.978Z,20.75
2019-03-08T07:56:17.847Z,22.13
2019-03-08T07:58:03.016Z,23.70
2019-03-08T07:59:41.818Z,23.75
2019-03-08T08:01:29.866Z,23.27
2019-03-08T08:03:11.880Z,20.55
2019-03-08T08:04:59.893Z,19.05
2019-03-08T08:06:35.775Z,19.30
2019-03-08T08:08:28.194Z,18.12
2019-03-08T08:10:10.007Z,18.70
2019-03-08T08:11:54.941Z,18.62
2019-03-08T08:13:40.619Z,18.35
2019-03-08T08:15:34.638Z,18.07
2019-03-08T08:17:16.191Z,17.92
2019-03-08T08:19:01.555Z,17.25
2019-03-08T08:20:46.913Z,16.60
2019-03-08T08:22:37.721Z,16.52
2019-03-08T08:24:30.258Z,18.15
2019-03-08T08:26:11.826Z,16.95
2019-03-08T08:27:50.305Z,24.98
2019-03-08T08:29:34.675Z,17.07
2019-03-08T08:31:07.643Z,18.40
2019-03-08T08:33:00.103Z,18.65
2019-03-08T08:34:52.250Z,18.73
2019-03-08T08:36:28.477Z,17.57
2019-03-08T08:38:04.389Z,15.60
2019-03-08T08:39:46.051Z,16.48
2019-03-08T08:41:21.926Z,14.43
2019-03-08T08:43:00.873Z,14.68
2019-03-08T08:44:37.467Z,16.02
2019-03-08T08:46:18.990Z,13.28
2019-03-08T08:48:04.227Z,13.05
2019-03-08T08:49:55.118Z,13.50
2019-03-08T08:51:29.845Z,12.78
2019-03-08T08:53:08.703Z,13.55
2019-03-08T08:54:53.509Z,13.72
2019-03-08T08:56:35.358Z,11.90
2019-03-08T08:58:11.525Z,11.50
2019-03-08T08:59:47.702Z,12.25
2019-03-08T09:01:23.612Z,10.63
2019-03-08T09:03:05.477Z,10.82
2019-03-08T09:04:44.329Z,10.75
2019-03-08T09:06:20.563Z,9.85
2019-03-08T09:07:59.488Z,10.08
2019-03-08T09:09:35.386Z,9.93
2019-03-08T09:11:11.410Z,13.53
2019-03-08T09:12:50.284Z,7.35
2019-03-08T09:14:26.142Z,10.68
2019-03-08T09:16:05.179Z,10.13
2019-03-08T09:17:56.603Z,11.88
2019-03-08T09:19:35.174Z,11.18
2019-03-08T09:21:26.370Z,16.32
2019-03-08T09:23:02.362Z,8.80
2019-03-08T09:24:44.034Z,9.68
2019-03-08T09:26:25.853Z,7.72
2019-03-08T09:28:01.702Z,9.08
2019-03-08T09:29:41.228Z,7.42
2019-03-08T09:31:16.059Z,8.35
2019-03-08T09:32:58.908Z,10.30
2019-03-08T09:34:32.451Z,9.23
2019-03-08T09:36:11.784Z,6.95
2019-03-08T09:37:53.719Z,7.08
2019-03-08T09:39:35.874Z,7.12
2019-03-08T09:41:18.269Z,6.47
2019-03-08T09:43:00.066Z,6.28
2019-03-08T09:44:44.619Z,5.90
2019-03-08T09:46:21.368Z,6.10
2019-03-08T09:47:57.303Z,6.17
2019-03-08T09:49:35.873Z,5.80
2019-03-08T09:51:12.032Z,6.37
2019-03-08T09:52:53.808Z,5.58
2019-03-08T09:54:32.769Z,5.12
2019-03-08T09:56:14.133Z,5.17
2019-03-08T09:57:56.237Z,5.15
2019-03-08T09:59:47.437Z,5.47
2019-03-08T10:01:39.879Z,5.25
2019-03-08T10:03:32.365Z,4.90
2019-03-08T10:05:08.208Z,5.47
2019-03-08T10:06:59.140Z,5.15
2019-03-08T10:08:53.476Z,6.97
2019-03-08T10:10:29.349Z,4.80
2019-03-08T10:12:12.075Z,4.53
2019-03-08T10:14:03.770Z,4.85
2019-03-08T10:15:42.378Z,4.62
2019-03-08T10:17:30.358Z,4.67
2019-03-08T10:19:12.490Z,4.42
2019-03-08T10:21:04.660Z,4.58
2019-03-08T10:22:58.545Z,4.55
2019-03-08T10:24:52.653Z,4.00
2019-03-08T10:26:37.180Z,4.37
2019-03-08T10:28:29.552Z,5.28
2019-03-08T10:30:09.480Z,4.90
2019-03-08T10:31:45.324Z,5.03
2019-03-08T10:33:46.051Z,4.62
2019-03-08T10:35:23.573Z,4.80
2019-03-08T10:36:52.588Z,4.55
2019-03-08T10:38:28.448Z,3.77
2019-03-08T10:40:13.564Z,3.55
2019-03-08T10:42:04.712Z,3.42
2019-03-08T10:43:52.531Z,3.92
2019-03-08T10:45:38.397Z,4.10
2019-03-08T10:47:31.095Z,3.77
2019-03-08T10:49:07.704Z,3.75
2019-03-08T10:50:55.737Z,4.10
2019-03-08T10:52:38.431Z,4.30
2019-03-08T10:54:16.958Z,4.37
2019-03-08T10:56:05.115Z,3.42
2019-03-08T10:57:46.938Z,3.08
2019-03-08T10:59:35.948Z,2.87
2019-03-08T11:01:11.854Z,3.40
2019-03-08T11:02:56.998Z,3.30
2019-03-08T11:04:45.308Z,3.10
2019-03-08T11:06:21.466Z,3.37
2019-03-08T11:08:00.525Z,3.52
2019-03-08T11:09:48.370Z,3.58
2019-03-08T11:11:33.271Z,4.20
2019-03-08T11:13:24.718Z,3.83
2019-03-08T11:15:12.644Z,4.00
2019-03-08T11:16:48.511Z,3.60
2019-03-08T11:18:27.714Z,2.85
2019-03-08T11:20:20.085Z,4.22
2019-03-08T11:22:12.017Z,3.52
2019-03-08T11:23:48.235Z,2.58
2019-03-08T11:25:40.620Z,4.28
2019-03-08T11:27:19.182Z,3.75
2019-03-08T11:29:04.554Z,3.58
2019-03-08T11:30:43.398Z,3.25
2019-03-08T11:32:22.983Z,2.87
2019-03-08T11:34:06.222Z,3.50
2019-03-08T11:35:51.382Z,3.92
2019-03-08T11:37:27.911Z,3.45
2019-03-08T11:39:07.371Z,4.42
2019-03-08T11:40:43.229Z,3.45
2019-03-08T11:42:19.098Z,3.60
2019-03-08T11:44:06.753Z,3.37
2019-03-08T11:45:42.958Z,3.40
2019-03-08T11:47:18.861Z,3.10
2019-03-08T11:48:57.662Z,2.77
2019-03-08T11:50:36.480Z,3.00
2019-03-08T11:52:15.871Z,2.58
2019-03-08T11:53:56.396Z,2.83
2019-03-08T11:55:31.950Z,2.67
2019-03-08T11:57:24.720Z,2.90
2019-03-08T11:59:16.733Z,3.92
2019-03-08T12:00:58.328Z,3.90
2019-03-08T12:02:37.868Z,3.33
2019-03-08T12:04:28.432Z,3.00
2019-03-08T12:06:20.735Z,3.58
2019-03-08T12:07:56.815Z,3.60
2019-03-08T12:09:32.658Z,3.52
2019-03-08T12:11:26.854Z,3.87
2019-03-08T12:13:18.352Z,4.00
2019-03-08T12:14:54.215Z,3.00
2019-03-08T12:16:32.902Z,3.37
2019-03-08T12:18:21.382Z,3.67
2019-03-08T12:19:57.247Z,3.98
2019-03-08T12:21:35.857Z,3.95
2019-03-08T12:23:11.701Z,4.90
2019-03-08T12:24:47.828Z,3.47
2019-03-08T12:26:48.893Z,4.73
2019-03-08T12:28:39.610Z,4.00
2019-03-08T12:30:31.594Z,3.60
2019-03-08T12:32:16.525Z,3.47
2019-03-08T12:34:01.051Z,4.15
2019-03-08T12:35:55.191Z,3.98
2019-03-08T12:37:43.555Z,4.35
2019-03-08T12:39:22.818Z,3.72
2019-03-08T12:41:05.049Z,4.17
2019-03-08T12:42:43.731Z,4.12
2019-03-08T12:44:28.689Z,4.05
2019-03-08T12:46:04.723Z,3.92
2019-03-08T12:47:40.816Z,3.35
2019-03-08T12:49:16.664Z,3.87
2019-03-08T12:50:58.306Z,3.98
2019-03-08T12:52:34.552Z,4.22
2019-03-08T12:54:25.753Z,3.92
2019-03-08T12:56:10.743Z,4.25
2019-03-08T12:58:02.803Z,5.22
2019-03-08T12:59:44.896Z,4.40
2019-03-08T13:01:23.727Z,3.40
2019-03-08T13:03:15.874Z,4.15
2019-03-08T13:04:57.938Z,3.50
2019-03-08T13:06:45.779Z,3.65
2019-03-08T13:08:34.553Z,3.52
2019-03-08T13:10:16.814Z,3.77
2019-03-08T13:11:51.199Z,3.87
2019-03-08T13:13:25.409Z,4.47
2019-03-08T13:14:59.655Z,3.90
2019-03-08T13:16:34.020Z,3.60
2019-03-08T13:18:08.235Z,3.83
2019-03-08T13:19:42.508Z,4.22
2019-03-08T13:21:16.745Z,4.17
2019-03-08T13:22:51.162Z,4.00
2019-03-08T13:24:25.661Z,3.30
2019-03-08T13:26:01.278Z,5.03
2019-03-08T13:27:35.471Z,8.18
2019-03-08T13:29:10.161Z,5.30
2019-03-08T13:30:44.385Z,4.28
2019-03-08T13:32:18.661Z,6.58
2019-03-08T13:33:52.956Z,6.10
2019-03-08T13:35:27.353Z,7.60
2019-03-08T13:37:02.017Z,6.17
2019-03-08T13:38:36.661Z,6.28
2019-03-08T13:40:13.406Z,4.35
2019-03-08T13:41:47.924Z,4.47
2019-03-08T13:43:22.122Z,3.90
2019-03-08T13:44:56.386Z,4.03
2019-03-08T13:46:30.751Z,4.37
2019-03-08T13:48:05.407Z,5.20
2019-03-08T13:49:39.759Z,5.03
2019-03-08T13:51:14.033Z,5.10
2019-03-08T13:52:48.376Z,5.47
2019-03-08T13:54:22.827Z,4.85
2019-03-08T13:55:57.099Z,4.75
2019-03-08T13:57:31.406Z,6.08
2019-03-08T13:59:05.642Z,5.83
2019-03-08T14:00:40.272Z,5.67
2019-03-08T14:02:14.499Z,5.78
2019-03-08T14:03:48.817Z,5.50
2019-03-08T14:05:23.163Z,5.45
2019-03-08T14:06:57.753Z,6.35
2019-03-08T14:08:32.658Z,5.83
2019-03-08T14:10:18.275Z,5.65
2019-03-08T14:11:52.615Z,6.25
2019-03-08T14:13:27.160Z,6.58
2019-03-08T14:15:01.437Z,9.53
2019-03-08T14:16:35.692Z,5.10
2019-03-08T14:18:10.308Z,7.65
2019-03-08T14:19:44.918Z,6.85
2019-03-08T14:21:19.237Z,7.33
2019-03-08T14:22:53.460Z,13.35
2019-03-08T14:24:27.750Z,13.85
2019-03-08T14:26:02.685Z,10.08
2019-03-08T14:27:36.933Z,10.80
2019-03-08T14:29:11.263Z,6.97
2019-03-08T14:30:57.898Z,8.75
2019-03-08T14:32:29.426Z,8.03
2019-03-08T14:34:03.707Z,7.05
2019-03-08T14:35:37.993Z,10.15
2019-03-08T14:37:12.268Z,7.97
2019-03-08T14:38:46.998Z,12.65
2019-03-08T14:40:39.284Z,9.18
2019-03-08T14:42:21.296Z,8.23
2019-03-08T14:43:57.487Z,7.97
2019-03-08T14:45:44.563Z,9.20
2019-03-08T14:47:20.393Z,9.10
2019-03-08T14:48:55.234Z,8.90
2019-03-08T14:50:31.885Z,9.78
2019-03-08T14:52:05.633Z,9.35
2019-03-08T14:53:39.948Z,8.73
2019-03-08T14:55:14.947Z,9.65
2019-03-08T14:56:49.562Z,13.60
2019-03-08T14:58:23.813Z,13.95
2019-03-08T14:59:58.091Z,14.90
2019-03-08T15:01:32.368Z,9.83
2019-03-08T15:03:06.922Z,9.63
2019-03-08T15:04:41.183Z,9.55
2019-03-08T15:06:15.446Z,8.75
2019-03-08T15:07:49.738Z,10.88
2019-03-08T15:09:28.938Z,10.88
2019-03-08T15:11:00.561Z,13.15
2019-03-08T15:12:37.612Z,14.18
2019-03-08T15:14:10.772Z,11.38
2019-03-08T15:15:45.407Z,12.37
2019-03-08T15:17:20.117Z,11.08
2019-03-08T15:18:54.430Z,11.45
2019-03-08T15:20:28.677Z,11.55
2019-03-08T15:22:03.018Z,7.40
2019-03-08T15:23:37.299Z,8.10
2019-03-08T15:25:14.064Z,9.18
2019-03-08T15:26:48.438Z,8.68
2019-03-08T15:28:23.277Z,8.88
2019-03-08T15:29:57.553Z,8.15
2019-03-08T15:31:31.908Z,10.72
2019-03-08T15:33:06.077Z,8.43
2019-03-08T15:34:40.618Z,8.60
2019-03-08T15:36:14.875Z,7.58
2019-03-08T15:37:49.567Z,7.70
2019-03-08T15:39:23.771Z,8.48
2019-03-08T15:40:58.115Z,8.53
2019-03-08T15:42:36.293Z,7.08
2019-03-08T15:44:08.440Z,8.43
2019-03-08T15:45:44.519Z,11.73
2019-03-08T15:47:23.601Z,21.97
2019-03-08T15:48:55.321Z,14.65
2019-03-08T15:50:29.545Z,9.25
2019-03-08T15:52:04.759Z,9.33
2019-03-08T15:53:39.514Z,9.53
2019-03-08T15:55:14.186Z,9.88
2019-03-08T15:56:48.468Z,9.03
2019-03-08T15:58:22.767Z,8.28
2019-03-08T15:59:57.100Z,10.78
2019-03-08T16:01:31.404Z,11.10
2019-03-08T16:03:05.652Z,10.63
2019-03-08T16:04:39.951Z,12.80
2019-03-08T16:06:14.729Z,9.85
2019-03-08T16:07:49.010Z,10.03
2019-03-08T16:09:23.290Z,12.90
2019-03-08T16:10:57.543Z,11.73
2019-03-08T16:12:32.066Z,15.30
2019-03-08T16:14:09.000Z,25.48
2019-03-08T16:15:44.219Z,15.63
2019-03-08T16:17:18.508Z,15.13
2019-03-08T16:18:53.005Z,19.07
2019-03-08T16:20:27.225Z,16.60
2019-03-08T16:22:01.886Z,16.20
2019-03-08T16:23:36.113Z,17.70
2019-03-08T16:25:12.708Z,65.52
2019-03-08T16:26:46.928Z,47.38
2019-03-08T16:28:21.202Z,20.35
2019-03-08T16:29:55.949Z,23.32
2019-03-08T16:31:31.983Z,29.00
2019-03-08T16:33:10.825Z,26.52
2019-03-08T16:34:44.884Z,25.50
2019-03-08T16:36:25.978Z,25.20
2019-03-08T16:38:10.652Z,21.57
2019-03-08T16:39:46.142Z,22.77
2019-03-08T16:41:30.122Z,53.85
2019-03-08T16:43:22.442Z,114.80
2019-03-08T16:45:04.135Z,76.77
2019-03-08T16:46:45.640Z,95.25
2019-03-08T16:48:26.949Z,88.07
2019-03-08T16:50:02.640Z,83.05
2019-03-08T16:51:54.797Z,56.40
2019-03-08T16:53:30.999Z,61.77
2019-03-08T16:55:14.202Z,97.82
2019-03-08T16:56:50.066Z,100.38
2019-03-08T16:58:29.090Z,100.78
2019-03-08T17:00:08.237Z,92.33
2019-03-08T17:01:54.322Z,95.00
2019-03-08T17:03:30.219Z,118.13
2019-03-08T17:05:08.075Z,166.57
2019-03-08T17:06:50.014Z,148.05
2019-03-08T17:08:38.185Z,123.78
2019-03-08T17:10:14.038Z,91.53
2019-03-08T17:11:50.230Z,80.15
2019-03-08T17:13:26.558Z,96.25
2019-03-08T17:15:18.820Z,101.85
2019-03-08T17:16:54.702Z,105.03
2019-03-08T17:18:36.579Z,65.92
2019-03-08T17:20:17.949Z,64.35
2019-03-08T17:21:59.857Z,66.55
2019-03-08T17:23:41.299Z,76.67
2019-03-08T17:25:29.193Z,68.12
2019-03-08T17:27:13.813Z,69.05
2019-03-08T17:28:56.318Z,76.40
2019-03-08T17:30:32.175Z,79.25
2019-03-08T17:32:08.191Z,75.45
2019-03-08T17:33:51.551Z,75.90
2019-03-08T17:35:30.263Z,88.82
2019-03-08T17:37:15.125Z,106.40
2019-03-08T17:38:59.778Z,136.43
2019-03-08T17:40:52.406Z,112.68
2019-03-08T17:42:34.136Z,106.07
2019-03-08T17:44:22.092Z,84.65
2019-03-08T17:46:01.198Z,78.80
2019-03-08T17:47:46.350Z,82.90
2019-03-08T17:49:37.480Z,76.82
2019-03-08T17:51:16.341Z,84.90
2019-03-08T17:52:55.032Z,89.87
2019-03-08T17:54:33.836Z,72.65
2019-03-08T17:56:15.488Z,100.87
2019-03-08T17:58:07.914Z,80.57
2019-03-08T17:59:46.786Z,67.32
2019-03-08T18:01:39.051Z,67.78
2019-03-08T18:03:24.527Z,67.78
2019-03-08T18:05:00.494Z,69.03
2019-03-08T18:06:42.158Z,73.30
2019-03-08T18:08:36.473Z,67.37
2019-03-08T18:10:12.379Z,81.67
2019-03-08T18:11:48.287Z,88.65
2019-03-08T18:13:24.229Z,75.87
2019-03-08T18:15:16.595Z,70.42
2019-03-08T18:17:08.887Z,41.37
2019-03-08T18:18:44.805Z,68.07
2019-03-08T18:20:23.774Z,41.58
2019-03-08T18:21:59.640Z,23.92
2019-03-08T18:23:38.675Z,24.60
2019-03-08T18:25:14.574Z,23.12
2019-03-08T18:26:50.670Z,25.37
2019-03-08T18:28:41.765Z,25.23
2019-03-08T18:30:37.151Z,23.00
2019-03-08T18:32:19.509Z,22.48
2019-03-08T18:34:01.224Z,21.60
2019-03-08T18:35:40.213Z,20.88
2019-03-08T18:37:18.853Z,21.73
2019-03-08T18:39:07.030Z,20.65
2019-03-08T18:40:42.916Z,21.05
2019-03-08T18:42:34.983Z,25.00
2019-03-08T18:44:16.694Z,23.70
2019-03-08T18:46:01.784Z,26.17
2019-03-08T18:47:52.627Z,24.52
2019-03-08T18:49:28.665Z,23.75
2019-03-08T18:51:22.618Z,25.77
2019-03-08T18:53:14.585Z,22.58
2019-03-08T18:55:00.407Z,21.75
2019-03-08T18:56:51.035Z,25.72
2019-03-08T18:58:43.545Z,24.63
2019-03-08T19:00:32.476Z,29.80
2019-03-08T19:02:11.348Z,24.18
2019-03-08T19:04:03.772Z,25.43
2019-03-08T19:05:43.928Z,26.48
2019-03-08T19:07:29.057Z,17.82
2019-03-08T19:09:21.319Z,16.25
2019-03-08T19:11:16.622Z,13.72
2019-03-08T19:12:52.540Z,21.25
2019-03-08T19:14:28.386Z,16.40
2019-03-08T19:16:04.254Z,15.05
2019-03-08T19:17:40.396Z,18.85
2019-03-08T19:19:29.441Z,16.62
2019-03-08T19:21:21.732Z,16.40
2019-03-08T19:22:57.813Z,17.17
2019-03-08T19:24:39.915Z,15.60
2019-03-08T19:26:18.493Z,17.10
2019-03-08T19:28:06.528Z,20.23
2019-03-08T19:29:42.397Z,20.23
2019-03-08T19:31:20.941Z,21.20
2019-03-08T19:32:57.608Z,17.80
2019-03-08T19:34:56.026Z,15.55
2019-03-08T19:36:31.936Z,21.68
2019-03-08T19:38:07.795Z,33.88
2019-03-08T19:40:00.505Z,29.87
2019-03-08T19:41:52.756Z,29.87
2019-03-08T19:43:36.668Z,25.72
2019-03-08T19:45:13.337Z,42.43
2019-03-08T19:46:49.191Z,45.48
2019-03-08T19:48:27.767Z,119.28
2019-03-08T19:50:06.582Z,94.80
2019-03-08T19:51:58.014Z,98.20
2019-03-08T19:53:49.151Z,47.88
2019-03-08T19:55:25.015Z,56.85
2019-03-08T19:57:07.060Z,36.05
2019-03-08T19:58:42.983Z,24.27
2019-03-08T20:00:35.162Z,24.57
2019-03-08T20:02:14.623Z,48.98
2019-03-08T20:03:59.474Z,49.42
2019-03-08T20:05:44.497Z,30.30
2019-03-08T20:07:26.976Z,26.35
2019-03-08T20:09:08.861Z,15.70
2019-03-08T20:11:00.982Z,14.50
2019-03-08T20:12:53.542Z,12.73
2019-03-08T20:14:38.743Z,13.48
2019-03-08T20:16:20.596Z,16.77
2019-03-08T20:17:59.723Z,19.77
2019-03-08T20:19:44.468Z,20.77
2019-03-08T20:23:36.206Z,17.92
2019-03-08T20:25:20.986Z,13.68
2019-03-08T20:27:09.408Z,18.70
2019-03-08T20:28:45.894Z,21.73
2019-03-08T20:30:27.688Z,58.13
2019-03-08T20:32:12.652Z,68.92
2019-03-08T20:33:51.423Z,60.48
2019-03-08T20:35:33.334Z,48.92
2019-03-08T20:37:09.225Z,95.00
2019-03-08T20:39:00.324Z,72.65
2019-03-08T20:40:52.406Z,26.25
2019-03-08T20:42:40.294Z,24.50
2019-03-08T20:44:19.047Z,19.95
2019-03-08T20:45:54.895Z,28.10
2019-03-08T20:47:32.261Z,48.80
2019-03-08T20:49:07.039Z,50.60
2019-03-08T20:50:41.642Z,71.47
2019-03-08T20:52:17.390Z,47.40
2019-03-08T20:53:51.759Z,49.18
2019-03-08T20:55:25.981Z,38.98
2019-03-08T20:57:00.486Z,36.23
2019-03-08T20:58:34.710Z,49.95
2019-03-08T21:00:18.410Z,44.08
2019-03-08T21:01:52.694Z,33.73
2019-03-08T21:03:27.135Z,20.52
2019-03-08T21:05:01.809Z,17.05
2019-03-08T21:06:36.138Z,13.95
2019-03-08T21:08:10.374Z,13.83
2019-03-08T21:09:44.921Z,17.90
2019-03-08T21:11:19.257Z,22.37
2019-03-08T21:12:53.603Z,23.85
2019-03-08T21:14:29.053Z,25.45
2019-03-08T21:16:03.584Z,25.52
2019-03-08T21:17:37.810Z,20.65
2019-03-08T21:19:12.187Z,19.85